TimeEST,TemperatureF,Dew PointF,Humidity,Sea Level PressureIn,VisibilityMPH,Wind Direction,Wind SpeedMPH,Gust SpeedMPH,PrecipitationIn,Events,Conditions,WindDirDegrees,DateUTC
12:03 AM,28.4,21.2,74,29.89,10.0,NNW,13.8,-,N/A,,Partly Cloudy,330,2013-02-15 05:03:00
12:15 AM,28.4,19.4,69,29.90,10.0,NW,11.5,-,N/A,,Mostly Cloudy,320,2013-02-15 05:15:00
12:30 AM,28.4,19.4,69,29.91,10.0,WNW,10.4,-,N/A,,Scattered Clouds,300,2013-02-15 05:30:00
12:53 AM,28.0,19.9,72,29.94,10.0,WNW,6.9,-,N/A,,Overcast,300,2013-02-15 05:53:00
1:53 AM,27.0,19.0,72,29.95,10.0,NW,9.2,-,N/A,,Overcast,320,2013-02-15 06:53:00
2:18 AM,26.6,19.4,74,29.93,10.0,NW,5.8,-,N/A,,Overcast,310,2013-02-15 07:18:00
2:53 AM,26.1,19.0,75,29.96,10.0,NNW,4.6,-,N/A,,Overcast,330,2013-02-15 07:53:00
3:28 AM,26.6,19.4,74,29.94,10.0,NW,8.1,-,N/A,,Mostly Cloudy,320,2013-02-15 08:28:00
3:53 AM,25.0,18.0,75,29.97,10.0,NNW,3.5,-,N/A,,Overcast,340,2013-02-15 08:53:00
4:53 AM,25.0,19.0,78,29.99,10.0,Calm,Calm,-,N/A,,Overcast,0,2013-02-15 09:53:00
5:01 AM,24.8,19.4,80,29.97,10.0,Calm,Calm,-,N/A,,Overcast,0,2013-02-15 10:01:00
5:18 AM,26.6,17.6,69,29.98,10.0,NNW,8.1,-,N/A,,Overcast,330,2013-02-15 10:18:00
5:53 AM,25.0,16.0,69,30.04,10.0,NW,9.2,-,N/A,,Overcast,320,2013-02-15 10:53:00
6:53 AM,24.1,15.1,69,30.05,10.0,NW,10.4,-,N/A,,Overcast,310,2013-02-15 11:53:00
7:53 AM,23.0,15.1,72,30.07,10.0,NW,5.8,-,N/A,,Mostly Cloudy,310,2013-02-15 12:53:00
8:53 AM,24.1,15.1,69,30.10,10.0,NW,6.9,-,N/A,,Mostly Cloudy,310,2013-02-15 13:53:00
9:53 AM,24.1,12.0,60,30.11,10.0,WNW,12.7,-,N/A,,Mostly Cloudy,300,2013-02-15 14:53:00
10:53 AM,24.1,10.9,57,30.12,10.0,NW,9.2,19.6,N/A,,Mostly Cloudy,310,2013-02-15 15:53:00
11:53 AM,25.0,12.0,58,30.13,10.0,NW,9.2,-,N/A,,Mostly Cloudy,320,2013-02-15 16:53:00
12:53 PM,26.1,12.9,58,30.13,10.0,NW,6.9,-,N/A,,Overcast,310,2013-02-15 17:53:00
1:53 PM,27.0,12.0,53,30.12,10.0,WNW,9.2,-,N/A,,Mostly Cloudy,290,2013-02-15 18:53:00
2:53 PM,27.0,14.0,58,30.12,10.0,West,10.4,-,N/A,,Mostly Cloudy,280,2013-02-15 19:53:00
3:53 PM,27.0,12.9,56,30.12,9.0,WNW,10.4,-,0.00,Snow,Light Snow,290,2013-02-15 20:53:00
4:53 PM,26.1,14.0,60,30.13,9.0,West,13.8,-,0.00,Snow,Light Snow,270,2013-02-15 21:53:00
5:53 PM,25.0,14.0,63,30.15,9.0,West,12.7,-,0.00,Snow,Light Snow,280,2013-02-15 22:53:00
6:53 PM,23.0,12.0,63,30.16,10.0,WNW,9.2,-,0.00,,Scattered Clouds,290,2013-02-15 23:53:00
7:53 PM,23.0,12.9,65,30.17,10.0,WNW,6.9,-,N/A,,Mostly Cloudy,300,2013-02-16 00:53:00
8:53 PM,23.0,15.1,72,30.17,9.0,WNW,6.9,-,0.00,Snow,Light Snow,290,2013-02-16 01:53:00
9:33 PM,21.2,15.8,80,30.13,2.0,West,5.8,-,0.00,Snow,Light Snow,280,2013-02-16 02:33:00
9:53 PM,21.9,18.0,85,30.17,2.0,WNW,3.5,-,0.00,Snow,Light Snow,300,2013-02-16 02:53:00
10:43 PM,21.2,17.6,86,30.12,2.0,Calm,Calm,-,0.01,Snow,Light Snow,0,2013-02-16 03:43:00
10:53 PM,21.0,18.0,88,30.15,2.5,WSW,4.6,-,0.01,Snow,Light Snow,240,2013-02-16 03:53:00
10:58 PM,21.2,17.6,86,30.11,3.0,SW,4.6,-,0.00,Snow,Light Snow,230,2013-02-16 03:58:00
11:53 PM,21.0,17.1,85,30.14,5.0,WSW,4.6,-,0.00,Snow,Light Snow,250,2013-02-16 04:53:00